Time;durP1;ratioP1;P1;durP2;ratioP2;P2;SDS_P1;SDS_P2;PMS_P1;PMS_P2;Temp;Humidity;BMP_temperature;BMP_pressure;BME280_temperature;BME280_humidity;BME280_pressure;Samples;Min_cycle;Max_cycle;Signal;HPM_P1;HPM_P2
2022/10/11 00:01:47;;;;;;;;;5.00;1.00;;;;;16.75;55.67;101852.00;5110317;27;52652;-79
2022/10/11 00:04:13;;;;;;;;;2.00;2.00;;;;;16.75;55.50;101856.50;5112727;27;45066;-77
2022/10/11 00:06:38;;;;;;;;;3.00;1.00;;;;;16.49;55.86;101820.91;5109537;27;63717;-74
2022/10/11 00:09:05;;;;;;;;;3.00;1.67;;;;;16.57;55.63;101844.44;5111755;27;45001;-76
2022/10/11 00:11:31;;;;;;;;;1.00;1.00;;;;;16.00;55.70;101743.59;5112117;27;45018;-78
2022/10/11 00:13:57;;;;;;;;;1.00;1.00;;;;;16.47;55.16;101839.75;5112503;27;45088;-72
2022/10/11 00:16:23;;;;;;;;;2.00;2.00;;;;;16.63;55.53;101869.72;5110913;27;45233;-74
2022/10/11 00:18:48;;;;;;;;;2.33;1.67;;;;;16.45;55.38;101843.28;5111317;27;45272;-75
2022/10/11 00:21:15;;;;;;;;;2.33;2.00;;;;;16.39;55.88;101845.00;5093113;27;45322;-81
2022/10/11 00:23:42;;;;;;;;;4.00;2.00;;;;;16.50;55.08;101858.72;5106238;27;45197;-79
2022/10/11 00:26:09;;;;;;;;;3.00;2.00;;;;;16.44;55.33;101860.38;5109973;27;45056;-77
2022/10/11 00:28:35;;;;;;;;;1.33;0.67;;;;;16.08;55.14;101796.72;5110898;27;45078;-79
2022/10/11 00:31:01;;;;;;;;;1.00;1.00;;;;;16.47;55.94;101868.53;5111926;27;45266;-79
2022/10/11 00:33:27;;;;;;;;;2.67;0.67;;;;;16.33;55.50;101853.00;5110860;27;45138;-75
2022/10/11 00:35:52;;;;;;;;;4.67;3.33;;;;;16.40;55.83;101857.63;5111060;27;45429;-68
2022/10/11 00:38:18;;;;;;;;;0.67;0.67;;;;;16.51;55.47;101876.69;5109859;27;57471;-78
2022/10/11 00:40:44;;;;;;;;;2.67;2.00;;;;;16.51;55.40;101882.09;5108423;27;44910;-69
2022/10/11 00:43:18;;;;;;;;;1.67;1.67;;;;;16.48;55.48;101887.47;5109225;27;45165;-78
2022/10/11 00:45:56;;;;;;;;;2.67;1.33;;;;;16.42;55.13;101883.72;5112469;27;45328;-78
2022/10/11 00:48:43;;;;;;;;;1.00;1.00;;;;;16.36;55.05;101882.69;5108781;27;45236;-80
2022/10/11 00:51:40;;;;;;;;;0.67;0.67;;;;;16.36;55.51;101884.50;5124277;27;45053;-78
2022/10/11 00:54:10;;;;;;;;;10.00;8.00;;;;;16.15;55.38;101848.13;5115286;27;45414;-73
2022/10/11 00:56:38;;;;;;;;;2.33;2.33;;;;;16.34;55.41;101887.16;5117346;27;45645;-74
2022/10/11 00:59:09;;;;;;;;;2.33;2.00;;;;;16.35;55.38;101886.28;5114551;27;45102;-80
2022/10/11 01:01:35;;;;;;;;;3.33;2.67;;;;;16.21;55.36;101852.72;5091469;27;45042;-76
2022/10/11 01:04:01;;;;;;;;;0.67;0.67;;;;;16.35;55.00;101883.59;5106734;27;44996;-80
2022/10/11 01:06:26;;;;;;;;;2.33;2.00;;;;;16.33;54.86;101893.44;5110864;27;45996;-81
2022/10/11 01:08:52;;;;;;;;;2.67;1.00;;;;;16.31;54.96;101889.78;5113958;27;45249;-80
2022/10/11 01:11:22;;;;;;;;;3.33;2.00;;;;;16.31;53.91;101894.28;5112953;27;45070;-79
2022/10/11 01:13:47;;;;;;;;;1.67;0.00;;;;;16.31;54.22;101891.56;5113089;27;45546;-80
2022/10/11 01:16:38;;;;;;;;;1.33;1.33;;;;;16.28;54.67;101891.50;5112899;27;45768;-79
2022/10/11 01:19:37;;;;;;;;;2.00;1.33;;;;;16.26;54.36;101888.78;5113238;27;45377;-78
2022/10/11 01:22:25;;;;;;;;;0.67;0.67;;;;;16.22;54.36;101892.31;5112018;27;45322;-78
2022/10/11 01:25:12;;;;;;;;;2.00;1.00;;;;;16.15;54.32;101875.09;5082741;27;45009;-74
2022/10/11 01:27:58;;;;;;;;;4.67;2.00;;;;;16.16;54.42;101890.38;5112850;27;45868;-77
2022/10/11 01:30:30;;;;;;;;;2.00;0.00;;;;;15.96;54.20;101860.28;5098944;27;45198;-76
2022/10/11 01:33:05;;;;;;;;;4.33;2.00;;;;;16.03;53.88;101872.09;5109991;27;45112;-77
2022/10/11 01:36:02;;;;;;;;;3.67;2.00;;;;;16.09;53.98;101890.22;5113157;27;45118;-73
2022/10/11 01:38:51;;;;;;;;;3.33;2.00;;;;;16.03;54.13;101886.47;5118114;27;45661;-76
2022/10/11 01:41:23;;;;;;;;;1.67;1.00;;;;;16.01;54.20;101890.03;5114194;27;45035;-80
2022/10/11 01:43:52;;;;;;;;;1.00;1.00;;;;;15.93;53.98;101879.06;5111533;27;44958;-75
2022/10/11 01:46:18;;;;;;;;;2.33;1.67;;;;;16.01;54.08;101896.31;5112341;27;45234;-77
2022/10/11 01:48:52;;;;;;;;;4.33;1.67;;;;;15.95;53.91;101896.19;5115049;27;45510;-68
2022/10/11 01:51:21;;;;;;;;;2.67;1.00;;;;;15.97;54.03;101890.81;5113469;27;45138;-68
2022/10/11 01:53:55;;;;;;;;;3.00;0.67;;;;;15.66;53.70;101838.91;5114202;27;45189;-74
2022/10/11 01:56:42;;;;;;;;;2.67;1.67;;;;;15.98;53.42;101895.34;5115463;27;45225;-78
2022/10/11 01:59:27;;;;;;;;;6.33;2.67;;;;;15.96;53.50;101889.94;5109112;27;45226;-75
2022/10/11 02:02:20;;;;;;;;;2.33;1.33;;;;;15.78;54.16;101865.25;5108831;27;45026;-74
2022/10/11 02:05:09;;;;;;;;;3.33;0.67;;;;;15.78;53.85;101867.97;5113730;27;45225;-74
2022/10/11 02:07:50;;;;;;;;;0.67;0.67;;;;;15.83;53.57;101879.75;5111718;27;45030;-78
2022/10/11 02:10:24;;;;;;;;;1.33;1.33;;;;;15.84;53.27;101879.78;5113626;27;45096;-74
2022/10/11 02:13:01;;;;;;;;;3.33;0.67;;;;;15.76;53.39;101876.00;5113528;27;45122;-70
2022/10/11 02:15:30;;;;;;;;;2.33;2.00;;;;;15.75;53.49;101884.00;5106849;27;44988;-74
2022/10/11 02:18:00;;;;;;;;;3.33;1.33;;;;;15.53;53.22;101851.19;5114403;27;44988;-80
2022/10/11 02:20:30;;;;;;;;;1.33;1.00;;;;;15.69;53.66;101887.50;5112682;27;46577;-77
2022/10/11 02:23:12;;;;;;;;;4.67;1.00;;;;;15.50;53.94;101853.81;5113687;27;44870;-77
2022/10/11 02:25:38;;;;;;;;;4.33;1.33;;;;;15.60;53.88;101873.78;5112677;27;45081;-79
2022/10/11 02:28:09;;;;;;;;;5.00;1.33;;;;;15.61;53.79;101872.94;5114377;27;45026;-78
2022/10/11 02:30:36;;;;;;;;;2.00;0.67;;;;;15.59;54.04;101867.50;5113465;27;45707;-76
2022/10/11 02:33:06;;;;;;;;;2.00;1.00;;;;;15.61;53.46;101864.84;5112895;27;45237;-78
2022/10/11 02:35:37;;;;;;;;;2.00;2.00;;;;;15.59;53.77;101880.03;5114075;27;45268;-70
2022/10/11 02:38:23;;;;;;;;;2.00;1.00;;;;;15.45;53.96;101864.47;5116244;27;44892;-75
2022/10/11 02:40:56;;;;;;;;;2.33;1.67;;;;;15.55;53.55;101884.44;5110028;27;44999;-76
2022/10/11 02:43:31;;;;;;;;;2.67;0.67;;;;;15.56;53.73;101893.44;5116090;27;45098;-73
2022/10/11 02:45:59;;;;;;;;;2.67;1.00;;;;;15.39;53.17;101868.78;5112923;27;45127;-71
2022/10/11 02:48:28;;;;;;;;;2.67;2.00;;;;;15.50;53.83;101890.59;5112941;27;45020;-77
2022/10/11 02:50:55;;;;;;;;;4.00;2.00;;;;;15.35;53.88;101866.91;5110570;27;45216;-75
2022/10/11 02:53:21;;;;;;;;;2.67;1.33;;;;;15.54;53.55;101893.41;5111944;27;45127;-77
2022/10/11 02:55:50;;;;;;;;;3.00;1.00;;;;;15.55;53.51;101889.84;5112932;27;44998;-79
2022/10/11 02:58:15;;;;;;;;;0.33;0.33;;;;;15.58;53.44;101892.59;5112601;27;45032;-79
2022/10/11 03:00:40;;;;;;;;;2.67;0.67;;;;;15.34;53.42;101848.91;5112349;27;48063;-80
2022/10/11 03:03:05;;;;;;;;;3.00;0.67;;;;;15.48;53.20;101885.19;5112219;27;44882;-79
2022/10/11 03:05:35;;;;;;;;;0.33;0.33;;;;;15.39;53.43;101853.56;5112892;27;45107;-79
2022/10/11 03:08:01;;;;;;;;;3.67;0.67;;;;;15.55;53.32;101895.22;5109599;27;45181;-79
2022/10/11 03:10:26;;;;;;;;;1.33;0.00;;;;;15.16;53.15;101828.72;5112657;27;45913;-76
2022/10/11 03:12:52;;;;;;;;;3.00;0.33;;;;;15.56;53.17;101897.06;5112726;27;45190;-70
2022/10/11 03:15:17;;;;;;;;;0.33;0.33;;;;;15.55;53.38;101902.41;5112298;27;56721;-74
2022/10/11 03:17:42;;;;;;;;;2.67;1.33;;;;;15.25;53.01;101852.31;5111030;27;45162;-68
2022/10/11 03:20:08;;;;;;;;;4.00;2.00;;;;;15.44;53.19;101891.34;5111991;27;62484;-76
2022/10/11 03:22:33;;;;;;;;;0.33;0.33;;;;;15.47;53.19;101908.50;5112472;27;45190;-78
2022/10/11 03:24:59;;;;;;;;;1.33;1.33;;;;;15.47;53.05;101900.41;5105877;27;45585;-73
2022/10/11 03:27:24;;;;;;;;;4.00;1.00;;;;;15.44;53.07;101911.13;5112962;27;45067;-79
2022/10/11 03:29:49;;;;;;;;;6.00;0.33;;;;;15.47;52.94;101912.97;5111310;27;61384;-70
2022/10/11 03:32:14;;;;;;;;;2.00;1.00;;;;;15.30;52.68;101900.00;5111324;27;63622;-80
2022/10/11 03:34:40;;;;;;;;;0.67;0.67;;;;;15.43;53.19;101917.38;5111878;27;45066;-71
2022/10/11 03:37:05;;;;;;;;;5.67;3.33;;;;;15.26;52.98;101890.03;5110476;27;50808;-75
2022/10/11 03:39:30;;;;;;;;;4.00;1.67;;;;;15.22;52.97;101881.84;5109923;27;59923;-71
2022/10/11 03:41:56;;;;;;;;;2.67;1.00;;;;;15.44;52.73;101913.81;5110365;27;45217;-80
2022/10/11 03:44:21;;;;;;;;;0.67;0.00;;;;;15.19;52.46;101869.19;5111450;27;44976;-75
2022/10/11 03:46:46;;;;;;;;;3.33;3.00;;;;;15.42;52.74;101914.66;5109849;27;45277;-77
2022/10/11 03:49:12;;;;;;;;;4.00;2.00;;;;;15.13;53.13;101879.84;5110334;27;66792;-69
2022/10/11 03:51:37;;;;;;;;;4.33;1.00;;;;;15.35;53.14;101923.44;5110322;27;44955;-69
2022/10/11 03:54:02;;;;;;;;;1.33;1.33;;;;;15.28;53.22;101917.00;5111907;27;45360;-75
2022/10/11 03:56:28;;;;;;;;;3.50;2.00;;;;;15.15;53.04;101896.91;5111098;27;45082;-76
2022/10/11 03:58:53;;;;;;;;;1.33;0.33;;;;;15.28;52.89;101927.78;5110496;27;45193;-79
2022/10/11 04:01:18;;;;;;;;;4.00;1.67;;;;;15.01;52.66;101883.09;5109955;27;63003;-76
2022/10/11 04:03:44;;;;;;;;;1.00;1.00;;;;;15.13;53.22;101909.44;5112286;27;45148;-69
2022/10/11 04:06:09;;;;;;;;;0.67;0.33;;;;;15.16;52.92;101919.34;5111926;27;45278;-74
2022/10/11 04:08:34;;;;;;;;;2.33;0.67;;;;;14.77;52.99;101845.69;5112151;27;45680;-76
2022/10/11 04:11:00;;;;;;;;;6.33;2.67;;;;;15.18;53.29;101936.44;5111921;27;54741;-74
2022/10/11 04:13:25;;;;;;;;;1.00;1.00;;;;;14.87;53.05;101877.34;5111475;27;51349;-77
2022/10/11 04:15:50;;;;;;;;;1.00;1.00;;;;;15.08;53.12;101932.63;5114386;27;45423;-77
2022/10/11 04:18:16;;;;;;;;;2.00;2.00;;;;;15.05;53.29;101927.16;5114831;27;45079;-72
2022/10/11 04:20:41;;;;;;;;;3.67;1.67;;;;;14.93;53.39;101914.25;5115493;27;45038;-73
2022/10/11 04:23:07;;;;;;;;;1.00;1.00;;;;;14.88;53.24;101907.84;5113938;27;45098;-71
2022/10/11 04:25:32;;;;;;;;;3.67;1.00;;;;;14.77;53.31;101896.81;5117043;27;46316;-77
2022/10/11 04:27:57;;;;;;;;;6.00;1.33;;;;;15.00;53.19;101935.09;5116661;27;53773;-77
2022/10/11 04:30:23;;;;;;;;;2.00;1.00;;;;;14.59;53.35;101877.44;5117505;27;44960;-76
2022/10/11 04:32:48;;;;;;;;;3.67;2.00;;;;;14.80;53.38;101904.97;5113683;27;45200;-76
2022/10/11 04:35:13;;;;;;;;;2.00;1.00;;;;;14.79;52.93;101916.59;5113379;27;45387;-75
2022/10/11 04:37:39;;;;;;;;;0.67;0.67;;;;;14.83;53.23;101921.19;5113634;27;45728;-72
2022/10/11 04:40:06;;;;;;;;;4.67;1.67;;;;;14.98;53.54;101946.69;5108658;27;44991;-71
2022/10/11 04:42:32;;;;;;;;;3.33;3.33;;;;;14.77;53.37;101907.56;5113667;27;45101;-75
2022/10/11 04:44:58;;;;;;;;;6.00;2.33;;;;;14.97;52.98;101952.97;5113009;27;45100;-77
2022/10/11 04:47:23;;;;;;;;;2.67;1.33;;;;;14.93;53.35;101941.16;5113460;27;65342;-75
2022/10/11 04:49:48;;;;;;;;;1.33;1.33;;;;;14.89;53.48;101934.78;5113047;27;45023;-68
2022/10/11 04:52:14;;;;;;;;;4.33;4.00;;;;;14.87;53.40;101939.22;5112961;27;45096;-75
2022/10/11 04:54:39;;;;;;;;;2.00;2.00;;;;;14.69;53.64;101906.44;5112876;27;45578;-77
2022/10/11 04:57:04;;;;;;;;;2.00;1.00;;;;;14.82;53.30;101948.06;5114659;27;45464;-76
2022/10/11 04:59:30;;;;;;;;;4.00;2.33;;;;;14.77;54.00;101934.47;5114469;27;47250;-69
2022/10/11 05:01:55;;;;;;;;;4.33;1.67;;;;;14.81;53.60;101944.44;5112848;27;45127;-75
2022/10/11 05:04:20;;;;;;;;;2.00;2.00;;;;;14.65;53.75;101921.59;5113025;27;45300;-78
2022/10/11 05:06:46;;;;;;;;;2.67;1.00;;;;;14.63;53.42;101917.91;5113699;27;45499;-77
2022/10/11 05:09:12;;;;;;;;;5.00;1.67;;;;;14.68;53.11;101929.75;5112740;27;50621;-77
2022/10/11 05:11:37;;;;;;;;;3.67;1.67;;;;;14.79;53.43;101932.72;5114671;27;45085;-73
2022/10/11 05:14:02;;;;;;;;;6.33;2.67;;;;;14.76;53.49;101947.88;5115053;27;44998;-70
2022/10/11 05:16:28;;;;;;;;;5.00;3.00;;;;;14.60;53.56;101930.38;5112636;27;47145;-78
2022/10/11 05:18:53;;;;;;;;;8.67;6.00;;;;;14.34;53.54;101896.47;5114585;27;45098;-78
2022/10/11 05:21:28;;;;;;;;;5.00;5.00;;;;;14.67;53.64;101954.81;5113990;27;45610;-79
2022/10/11 05:23:55;;;;;;;;;5.00;3.00;;;;;14.64;53.50;101952.03;5113263;27;45202;-74
2022/10/11 05:26:21;;;;;;;;;6.00;4.33;;;;;14.56;53.66;101946.38;5112365;27;45790;-80
2022/10/11 05:28:47;;;;;;;;;5.00;1.67;;;;;14.42;53.73;101917.28;5113718;27;45207;-70
2022/10/11 05:31:13;;;;;;;;;3.67;3.33;;;;;14.41;53.91;101926.22;5114291;27;45181;-72
2022/10/11 05:33:39;;;;;;;;;1.67;1.67;;;;;14.50;53.64;101943.53;5114200;27;45188;-71
2022/10/11 05:36:06;;;;;;;;;3.00;2.00;;;;;14.54;53.87;101947.22;5113982;27;45627;-77
2022/10/11 05:38:31;;;;;;;;;5.67;5.67;;;;;14.43;53.37;101940.63;5113311;27;45033;-77
2022/10/11 05:40:58;;;;;;;;;1.00;1.00;;;;;14.47;53.51;101950.56;5114571;27;45367;-75
2022/10/11 05:43:24;;;;;;;;;3.67;3.67;;;;;14.43;53.69;101944.19;5107195;27;45099;-73
2022/10/11 05:45:49;;;;;;;;;2.00;2.00;;;;;14.34;53.96;101941.25;5113566;27;45271;-79
2022/10/11 05:48:14;;;;;;;;;3.67;2.00;;;;;14.30;54.20;101939.31;5112849;27;45144;-68
2022/10/11 05:50:40;;;;;;;;;1.00;1.00;;;;;14.39;53.94;101953.06;5112078;27;45158;-75
2022/10/11 05:53:06;;;;;;;;;2.00;2.00;;;;;14.26;53.79;101954.47;5111063;27;45182;-70
2022/10/11 05:55:42;;;;;;;;;3.33;2.00;;;;;14.15;54.05;101945.16;5112699;27;46043;-77
2022/10/11 05:58:11;;;;;;;;;6.00;5.00;;;;;14.05;53.90;101918.88;5113232;27;45008;-78
2022/10/11 06:00:36;;;;;;;;;7.75;6.75;;;;;14.19;54.40;101941.72;5113910;27;45080;-68
2022/10/11 06:03:02;;;;;;;;;5.33;4.00;;;;;14.27;54.23;101961.66;5113189;27;44992;-75
2022/10/11 06:05:27;;;;;;;;;4.75;4.75;;;;;14.30;53.95;101955.47;5113853;27;45069;-75
2022/10/11 06:07:53;;;;;;;;;6.33;3.33;;;;;14.01;54.18;101910.69;5113506;27;45225;-78
2022/10/11 06:10:18;;;;;;;;;6.33;2.67;;;;;14.17;53.98;101951.47;5114167;27;45530;-75
2022/10/11 06:12:44;;;;;;;;;7.00;4.33;;;;;14.03;54.53;101921.50;5116218;27;45040;-68
2022/10/11 06:15:10;;;;;;;;;5.50;4.25;;;;;14.16;54.53;101953.25;5114289;27;45066;-78
2022/10/11 06:17:35;;;;;;;;;7.00;2.67;;;;;14.11;54.10;101946.84;5115568;27;45129;-71
2022/10/11 06:20:00;;;;;;;;;10.00;3.33;;;;;14.22;53.89;101965.97;5112438;27;45162;-77
2022/10/11 06:22:26;;;;;;;;;3.00;3.00;;;;;13.93;54.17;101925.66;5113798;27;46151;-72
2022/10/11 06:24:51;;;;;;;;;15.75;12.00;;;;;14.10;54.29;101946.78;5101891;27;47085;-72
2022/10/11 06:27:16;;;;;;;;;6.67;6.00;;;;;14.09;54.35;101962.00;5113014;27;45187;-69
2022/10/11 06:29:42;;;;;;;;;7.00;4.00;;;;;14.19;54.55;101985.63;5112882;27;50188;-75
2022/10/11 06:32:07;;;;;;;;;5.67;4.00;;;;;14.18;54.19;101983.78;5111468;27;45365;-76
2022/10/11 06:34:32;;;;;;;;;7.67;4.67;;;;;13.99;54.38;101942.00;5111355;27;45156;-67
2022/10/11 06:36:58;;;;;;;;;4.33;3.00;;;;;14.13;54.06;101963.00;5112135;27;63000;-75
2022/10/11 06:39:23;;;;;;;;;7.00;5.00;;;;;14.29;54.35;101988.59;5113185;27;45276;-72
2022/10/11 06:41:48;;;;;;;;;11.00;8.00;;;;;14.25;53.96;101982.19;5112019;27;45163;-76
2022/10/11 06:44:14;;;;;;;;;3.33;2.33;;;;;13.85;53.91;101911.09;5104644;27;57825;-73
2022/10/11 06:46:40;;;;;;;;;2.33;2.33;;;;;14.28;53.59;101984.06;5110448;27;45306;-73
2022/10/11 06:49:06;;;;;;;;;4.00;2.33;;;;;14.26;54.08;101986.72;5106566;27;45104;-76
2022/10/11 06:51:33;;;;;;;;;5.67;4.67;;;;;14.25;53.80;101992.03;5084972;28;45330;-76
2022/10/11 06:54:00;;;;;;;;;33.25;24.50;;;;;14.10;53.99;101962.91;5091339;28;45556;-74
2022/10/11 06:56:27;;;;;;;;;10.33;4.67;;;;;14.01;53.76;101933.97;5091257;28;45031;-71
2022/10/11 06:58:53;;;;;;;;;5.33;4.00;;;;;14.26;53.58;101985.81;5091256;28;44956;-78
2022/10/11 07:01:22;;;;;;;;;10.00;5.00;;;;;14.28;53.67;101984.06;5072782;28;45174;-70
2022/10/11 07:03:48;;;;;;;;;4.33;2.33;;;;;14.19;53.69;101980.25;5091340;28;45198;-72
2022/10/11 07:06:16;;;;;;;;;7.00;4.00;;;;;14.27;53.46;101985.88;5091328;28;44971;-69
2022/10/11 07:08:42;;;;;;;;;18.75;15.75;;;;;14.38;53.67;101995.16;5086983;28;45492;-68
2022/10/11 07:11:13;;;;;;;;;11.25;10.25;;;;;14.28;53.64;101976.91;5091927;28;45107;-73
2022/10/11 07:13:40;;;;;;;;;6.75;6.75;;;;;14.39;54.10;102001.47;5091758;28;45673;-69
2022/10/11 07:16:08;;;;;;;;;6.00;4.67;;;;;14.26;53.54;101984.03;5091606;28;44963;-73
2022/10/11 07:18:33;;;;;;;;;5.33;3.00;;;;;14.34;53.00;102003.09;5091454;28;45160;-71
2022/10/11 07:21:07;;;;;;;;;9.00;5.33;;;;;14.26;53.25;102001.94;5091807;28;45029;-67
2022/10/11 07:23:33;;;;;;;;;11.33;7.00;;;;;14.30;53.05;102012.81;5090144;28;46278;-68
2022/10/11 07:25:59;;;;;;;;;8.00;4.00;;;;;14.23;52.72;102007.22;5069893;28;44969;-72
2022/10/11 07:28:25;;;;;;;;;9.00;4.67;;;;;14.11;52.99;101988.94;5089231;28;45374;-72
2022/10/11 07:30:51;;;;;;;;;10.33;5.00;;;;;14.28;52.85;102013.66;5090277;28;45237;-71
2022/10/11 07:33:16;;;;;;;;;4.33;4.00;;;;;14.32;52.74;102020.94;5070969;28;46183;-70
2022/10/11 07:35:42;;;;;;;;;7.67;4.00;;;;;14.27;52.28;102007.38;5091247;28;45319;-70
2022/10/11 07:38:07;;;;;;;;;4.00;3.00;;;;;14.26;52.52;101993.88;5091056;28;45016;-67
2022/10/11 07:40:41;;;;;;;;;8.50;8.00;;;;;14.42;51.85;102024.81;5090690;28;45256;-71
2022/10/11 07:43:06;;;;;;;;;4.67;4.33;;;;;14.28;52.04;102000.22;5085770;28;45783;-72
2022/10/11 07:45:32;;;;;;;;;3.00;2.67;;;;;14.44;51.56;102025.81;5089634;28;45125;-69
2022/10/11 07:47:57;;;;;;;;;4.33;4.33;;;;;14.44;51.82;102037.47;5090714;28;45217;-68
2022/10/11 07:50:23;;;;;;;;;5.33;3.00;;;;;14.02;51.58;101968.03;5095258;27;45097;-71
2022/10/11 07:52:49;;;;;;;;;7.67;4.00;;;;;14.42;51.82;102044.56;5115411;27;45254;-67
2022/10/11 07:55:14;;;;;;;;;6.00;6.00;;;;;14.32;51.67;102027.25;5115243;27;44885;-67
2022/10/11 07:57:40;;;;;;;;;9.00;5.00;;;;;14.31;51.34;102032.56;5115955;27;45089;-68
2022/10/11 08:00:06;;;;;;;;;7.67;2.00;;;;;14.21;51.99;102025.09;5118390;27;45112;-71
2022/10/11 08:02:31;;;;;;;;;5.67;4.67;;;;;14.32;52.25;102029.94;5116197;27;46497;-71
2022/10/11 08:04:57;;;;;;;;;6.00;5.00;;;;;14.44;52.52;102048.22;5116786;27;57794;-71
2022/10/11 08:07:22;;;;;;;;;7.00;5.00;;;;;14.33;52.14;102020.97;5116987;27;45366;-70
2022/10/11 08:09:47;;;;;;;;;9.75;7.50;;;;;14.53;51.83;102053.88;5114646;27;48730;-70
2022/10/11 08:12:13;;;;;;;;;6.00;4.00;;;;;14.59;51.87;102057.63;5115326;27;45621;-71
2022/10/11 08:14:40;;;;;;;;;6.67;5.33;;;;;14.55;51.66;102044.09;5115085;27;45103;-71
2022/10/11 08:17:06;;;;;;;;;9.75;8.00;;;;;14.48;51.89;102027.72;5114990;27;45109;-71
2022/10/11 08:19:31;;;;;;;;;17.75;13.75;;;;;14.47;51.72;102023.19;5114983;27;45221;-68
2022/10/11 08:21:57;;;;;;;;;8.00;8.00;;;;;14.13;51.43;101958.53;5113842;27;45074;-72
2022/10/11 08:24:23;;;;;;;;;9.25;7.25;;;;;14.68;51.63;102053.50;5113631;27;45184;-68
2022/10/11 08:26:48;;;;;;;;;12.25;9.25;;;;;14.59;50.93;102028.06;5112145;27;45159;-67
2022/10/11 08:29:13;;;;;;;;;26.00;19.25;;;;;14.77;51.40;102058.22;5112814;27;45077;-70
2022/10/11 08:31:39;;;;;;;;;14.25;13.25;;;;;14.78;50.97;102048.38;5111816;27;45087;-71
2022/10/11 08:34:04;;;;;;;;;15.25;12.75;;;;;14.81;51.38;102038.59;5111522;27;44961;-71
2022/10/11 08:36:30;;;;;;;;;11.75;8.50;;;;;15.00;50.73;102060.69;5113655;27;45239;-72
2022/10/11 08:38:55;;;;;;;;;7.33;5.33;;;;;14.86;50.33;102022.59;5113608;27;45545;-71
2022/10/11 08:41:41;;;;;;;;;8.00;7.00;;;;;15.09;50.35;102053.78;5111491;27;59853;-68
2022/10/11 08:44:37;;;;;;;;;14.25;14.25;;;;;15.18;49.99;102055.84;5107904;27;44980;-68
2022/10/11 08:47:14;;;;;;;;;12.00;11.00;;;;;15.03;50.13;102032.09;5108957;27;45140;-71
2022/10/11 08:49:40;;;;;;;;;42.50;32.00;;;;;15.25;50.00;102062.31;5114247;27;45116;-70
2022/10/11 08:52:17;;;;;;;;;13.67;9.00;;;;;15.28;49.99;102067.78;5114326;27;45320;-71
2022/10/11 08:54:51;;;;;;;;;10.33;7.67;;;;;15.36;49.86;102063.53;5113590;27;44925;-68
2022/10/11 08:57:20;;;;;;;;;7.33;6.00;;;;;15.27;48.85;102039.03;5110811;27;45213;-71
2022/10/11 08:59:56;;;;;;;;;9.33;8.33;;;;;15.42;49.18;102065.47;5112497;27;45125;-68
2022/10/11 09:02:33;;;;;;;;;12.50;10.25;;;;;15.37;48.78;102067.13;5107002;27;45168;-70
2022/10/11 09:05:00;;;;;;;;;10.67;7.67;;;;;15.29;49.02;102050.75;5112315;27;45323;-70
2022/10/11 09:07:48;;;;;;;;;7.33;5.67;;;;;15.30;49.35;102052.56;5111790;27;45204;-69
2022/10/11 09:10:55;;;;;;;;;6.33;5.67;;;;;15.56;49.17;102060.44;5112673;27;45044;-71
2022/10/11 09:13:30;;;;;;;;;7.33;5.00;;;;;15.62;49.11;102060.59;5109930;27;45118;-71
2022/10/11 09:16:01;;;;;;;;;17.50;14.50;;;;;15.68;48.85;102066.16;5111152;27;44853;-70
2022/10/11 09:18:47;;;;;;;;;11.50;9.75;;;;;15.77;49.43;102062.81;5112440;27;45107;-71
2022/10/11 09:21:34;;;;;;;;;9.67;9.00;;;;;15.69;48.48;102003.34;5108224;27;45014;-68
2022/10/11 09:24:18;;;;;;;;;14.25;8.50;;;;;16.13;48.20;102052.06;5110761;27;44992;-71
2022/10/11 09:27:18;;;;;;;;;6.67;5.67;;;;;16.27;48.16;102057.81;5113962;27;45143;-68
2022/10/11 09:29:55;;;;;;;;;6.00;2.33;;;;;16.31;47.88;102053.41;5089695;27;44986;-72
2022/10/11 09:32:22;;;;;;;;;3.00;2.00;;;;;16.18;48.60;102041.41;5114178;27;45893;-71
2022/10/11 09:34:58;;;;;;;;;4.33;4.33;;;;;16.23;48.55;102055.00;5113837;27;46297;-73
2022/10/11 09:37:34;;;;;;;;;5.00;4.00;;;;;16.27;48.35;102056.88;5113995;27;45021;-72
2022/10/11 09:40:09;;;;;;;;;8.00;7.00;;;;;16.32;48.47;102058.81;5113653;27;44973;-70
2022/10/11 09:42:34;;;;;;;;;12.67;8.33;;;;;16.14;48.65;102001.75;5108473;27;44950;-73
2022/10/11 09:45:00;;;;;;;;;4.33;3.67;;;;;16.29;48.39;102020.09;5112794;27;57747;-71
2022/10/11 09:47:28;;;;;;;;;13.67;10.33;;;;;16.17;48.17;101983.88;5112942;27;44909;-72
2022/10/11 09:49:58;;;;;;;;;8.33;6.33;;;;;16.64;48.49;102041.56;5112460;27;45230;-72
2022/10/11 09:52:24;;;;;;;;;1.67;1.67;;;;;16.70;48.31;102039.91;5112665;27;45272;-71
2022/10/11 09:54:53;;;;;;;;;9.33;5.00;;;;;16.82;47.75;102046.44;5113508;27;45263;-68
2022/10/11 09:57:24;;;;;;;;;4.67;4.33;;;;;16.81;48.01;102026.63;5113425;27;45147;-70
2022/10/11 10:00:03;;;;;;;;;6.00;5.00;;;;;17.04;47.55;102040.66;5112939;27;45026;-69
2022/10/11 10:02:37;;;;;;;;;6.67;4.67;;;;;17.28;47.14;102015.00;5111266;27;45040;-69
2022/10/11 10:05:05;;;;;;;;;16.33;11.33;;;;;17.80;46.28;102034.88;5109947;27;45427;-71
2022/10/11 10:07:32;;;;;;;;;14.33;6.33;;;;;17.60;45.38;101963.34;5111427;27;45226;-71
2022/10/11 10:09:59;;;;;;;;;8.67;4.67;;;;;17.41;45.49;101933.31;5110003;27;46126;-72
2022/10/11 10:12:29;;;;;;;;;5.00;4.67;;;;;17.68;45.60;101972.47;5108747;27;45090;-69
2022/10/11 10:15:18;;;;;;;;;26.67;19.33;;;;;17.75;45.25;101979.81;5109498;27;45595;-73
2022/10/11 10:17:48;;;;;;;;;5.00;5.00;;;;;18.12;45.36;102036.31;5094007;27;45094;-67
2022/10/11 10:20:30;;;;;;;;;6.00;5.00;;;;;18.11;45.36;102030.00;5108865;27;45485;-72
2022/10/11 10:22:58;;;;;;;;;12.67;10.67;;;;;18.18;45.58;102033.69;5108728;27;45417;-70
2022/10/11 10:25:33;;;;;;;;;9.33;6.67;;;;;18.27;45.43;102035.66;5111563;27;45590;-70
2022/10/11 10:28:02;;;;;;;;;11.33;9.67;;;;;18.29;44.89;102033.88;5112847;27;45417;-69
2022/10/11 10:30:29;;;;;;;;;6.67;6.00;;;;;18.29;45.17;102033.88;5111568;27;45056;-73
2022/10/11 10:33:05;;;;;;;;;9.33;8.00;;;;;18.32;45.71;102040.22;5112850;27;45033;-70
2022/10/11 10:35:40;;;;;;;;;33.75;32.25;;;;;18.31;45.35;102026.69;5112867;27;45491;-71
2022/10/11 10:38:30;;;;;;;;;6.33;6.00;;;;;18.41;45.24;102032.28;5112515;27;45097;-68
2022/10/11 10:41:00;;;;;;;;;11.67;8.33;;;;;18.47;45.39;102034.13;5110931;27;45070;-73
2022/10/11 10:43:28;;;;;;;;;7.33;5.67;;;;;18.46;45.06;102013.38;5110164;27;45398;-72
2022/10/11 10:46:09;;;;;;;;;10.67;7.67;;;;;18.59;44.88;102028.91;5109841;27;45380;-70
2022/10/11 10:48:46;;;;;;;;;10.67;7.33;;;;;18.49;45.28;102004.41;5109741;27;45288;-71
2022/10/11 10:51:30;;;;;;;;;5.67;5.33;;;;;18.69;44.61;102029.03;5110437;27;45184;-71
2022/10/11 10:54:23;;;;;;;;;6.00;4.67;;;;;18.66;45.02;102026.28;5106446;27;45012;-71
2022/10/11 10:56:56;;;;;;;;;20.33;16.67;;;;;18.64;45.27;102000.97;5104374;27;46359;-71
2022/10/11 10:59:53;;;;;;;;;11.00;10.33;;;;;18.57;44.70;101987.38;5112536;27;45128;-70
2022/10/11 11:02:31;;;;;;;;;5.33;5.33;;;;;18.88;45.02;102027.50;5108725;27;45256;-71
2022/10/11 11:05:10;;;;;;;;;4.33;4.00;;;;;18.80;44.53;102011.13;5112433;27;45593;-71
2022/10/11 11:08:04;;;;;;;;;4.33;3.67;;;;;18.88;44.54;102031.13;5111842;27;45090;-74
2022/10/11 11:10:40;;;;;;;;;3.33;3.33;;;;;18.71;44.53;102002.88;5091400;27;45186;-71
2022/10/11 11:13:23;;;;;;;;;5.33;5.33;;;;;18.39;44.66;101942.00;5110478;27;45118;-70
2022/10/11 11:15:57;;;;;;;;;5.00;4.33;;;;;18.89;44.70;102019.41;5111162;27;45390;-72
2022/10/11 11:18:38;;;;;;;;;8.00;6.00;;;;;18.93;44.75;102014.94;5108547;27;45400;-73
2022/10/11 11:21:46;;;;;;;;;5.33;5.33;;;;;18.84;44.12;101993.16;5104387;27;45305;-72
2022/10/11 11:24:34;;;;;;;;;5.67;4.67;;;;;18.99;43.41;102023.13;5104250;27;45246;-73
2022/10/11 11:27:14;;;;;;;;;12.33;12.33;;;;;18.95;43.20;102014.03;5092851;27;45003;-71
2022/10/11 11:29:55;;;;;;;;;6.67;2.67;;;;;18.98;43.23;102001.44;5110111;27;46765;-73
2022/10/11 11:32:23;;;;;;;;;4.33;3.67;;;;;18.95;43.30;102016.75;5103970;27;44976;-70
2022/10/11 11:35:08;;;;;;;;;3.67;3.67;;;;;18.93;43.61;102007.72;5112991;27;44957;-70
2022/10/11 11:37:37;;;;;;;;;3.00;3.00;;;;;18.80;43.83;101973.22;5111235;27;45128;-73
2022/10/11 11:40:16;;;;;;;;;3.67;3.33;;;;;18.84;43.91;101983.25;5111825;27;45584;-71